Gustavus, Ohio
Current Conditions -  °F | °C
As of 3:51 AM on Saturday 29 Nov 2014 (Local Time) from KYNG Reporting Station
Overcast Overcast  
Wind Chill: 18°   Ceiling: 5500
Heat Index: 28°   Visibility: 10mi
Dew Point: 20°   Wind: 12mph
Humidity: 72%   Direction: 150°SSE
Pressure: 30.09"   Gusts: NA
Location:  41.4314°N, 80.6629°W
Report Text: KYNG 290851Z 15010KT 10SM OVC055 M02/M07 A3009 RMK AO2 SLP206 T10221067 58013
Loading
Personal Weather Stations






























Interactive Weather Map New forecast layout! Learn more

10-Day Weather Forecast

Advertisements
Track Severe Weather on mobile